Time;durP1;ratioP1;P1;durP2;ratioP2;P2;SDS_P1;SDS_P2;PMS_P1;PMS_P2;Temp;Humidity;BMP_temperature;BMP_pressure;BME280_temperature;BME280_humidity;BME280_pressure;Samples;Min_cycle;Max_cycle;Signal;HPM_P1;HPM_P2
2021/05/04 00:09:18;;;;;;;4.53;2.80;;;14.30;70.60;;;;;;20921333;28;20098;-61
2021/05/04 00:19:19;;;;;;;4.45;2.88;;;14.20;71.00;;;;;;20919915;28;20076;-60
2021/05/04 00:29:20;;;;;;;4.15;3.05;;;14.20;70.50;;;;;;20919120;28;20099;-63
2021/05/04 00:39:26;;;;;;;5.82;3.70;;;14.20;70.90;;;;;;20918366;28;20088;-59
2021/05/04 00:49:27;;;;;;;5.45;3.85;;;14.10;71.10;;;;;;20917576;28;20504;-60
2021/05/04 00:59:29;;;;;;;5.10;3.42;;;14.20;71.10;;;;;;20917144;28;20067;-59
2021/05/04 01:09:30;;;;;;;5.00;3.90;;;14.10;71.70;;;;;;20914863;28;20107;-60
2021/05/04 01:19:32;;;;;;;4.70;3.40;;;14.00;72.00;;;;;;20915457;28;20048;-62
2021/05/04 01:29:33;;;;;;;3.88;2.83;;;13.90;70.20;;;;;;20914429;28;20063;-60
2021/05/04 01:39:47;;;;;;;3.95;3.20;;;13.70;70.00;;;;;;20914417;28;20451;-60
2021/05/04 01:49:49;;;;;;;3.67;3.13;;;13.50;69.70;;;;;;20913152;28;20059;-61
2021/05/04 01:59:50;;;;;;;4.93;3.10;;;13.20;70.50;;;;;;20911663;28;20048;-59
2021/05/04 02:09:51;;;;;;;4.38;3.25;;;13.10;70.30;;;;;;20912331;28;20049;-59
2021/05/04 02:19:53;;;;;;;5.35;3.85;;;12.90;70.80;;;;;;20912230;28;20041;-61
2021/05/04 02:29:54;;;;;;;5.65;4.05;;;12.90;71.40;;;;;;20909528;28;20056;-60
2021/05/04 02:39:56;;;;;;;3.90;3.08;;;12.80;72.20;;;;;;20911036;28;20045;-60
2021/05/04 02:49:57;;;;;;;4.55;3.25;;;12.90;72.00;;;;;;20910649;28;20045;-60
2021/05/04 02:59:58;;;;;;;3.97;3.35;;;12.70;71.80;;;;;;20910613;28;20505;-61
2021/05/04 03:09:59;;;;;;;5.13;3.70;;;12.70;71.40;;;;;;20911006;28;20053;-60
2021/05/04 03:20:01;;;;;;;5.10;3.38;;;12.60;71.20;;;;;;20924345;28;20045;-59
2021/05/04 03:30:04;;;;;;;3.83;3.28;;;12.50;71.50;;;;;;20922569;28;20053;-59
2021/05/04 03:40:05;;;;;;;4.95;3.33;;;12.50;71.10;;;;;;20923801;28;20045;-60
2021/05/04 03:50:13;;;;;;;4.75;3.70;;;12.40;71.60;;;;;;20922570;28;20485;-60
2021/05/04 04:00:15;;;;;;;5.90;3.20;;;12.40;71.40;;;;;;20922395;28;20045;-59
2021/05/04 04:10:17;;;;;;;5.22;3.70;;;12.30;71.00;;;;;;20920827;28;20044;-58
2021/05/04 04:20:18;;;;;;;5.05;3.47;;;12.20;71.00;;;;;;20920126;28;20383;-60
2021/05/04 04:30:19;;;;;;;5.47;3.97;;;12.10;71.40;;;;;;20918217;28;20497;-59
2021/05/04 04:40:22;;;;;;;7.72;3.60;;;12.10;71.50;;;;;;20918948;28;20045;-60
2021/05/04 04:50:23;;;;;;;4.95;3.95;;;12.00;71.40;;;;;;20917429;28;20055;-61
2021/05/04 05:00:25;;;;;;;5.75;3.53;;;12.10;71.20;;;;;;20917432;28;20067;-60
2021/05/04 05:10:26;;;;;;;5.80;3.90;;;12.10;70.80;;;;;;20916465;28;20049;-61
2021/05/04 05:20:27;;;;;;;7.78;3.75;;;11.90;70.40;;;;;;20916537;28;20428;-58
2021/05/04 05:30:29;;;;;;;6.18;4.45;;;11.90;70.20;;;;;;20914568;28;20084;-61
2021/05/04 05:40:31;;;;;;;6.53;3.92;;;11.80;70.30;;;;;;20914371;28;20128;-60
2021/05/04 05:50:32;;;;;;;6.90;4.05;;;11.80;70.10;;;;;;20913693;28;20049;-60
2021/05/04 06:00:33;;;;;;;8.80;4.20;;;11.80;69.80;;;;;;20911891;28;20135;-60
2021/05/04 06:10:35;;;;;;;23.13;5.68;;;12.00;69.30;;;;;;20912260;28;20394;-59
2021/05/04 06:20:36;;;;;;;7.38;4.70;;;12.00;68.70;;;;;;20909698;28;20076;-63
2021/05/04 06:30:39;;;;;;;12.32;5.03;;;11.90;69.20;;;;;;20911374;28;20530;-61
2021/05/04 06:40:41;;;;;;;6.53;4.25;;;12.20;69.00;;;;;;20910705;28;20045;-62
2021/05/04 06:50:42;;;;;;;7.13;5.20;;;12.70;66.70;;;;;;20920502;28;20087;-62
2021/05/04 07:00:44;;;;;;;8.20;5.40;;;13.10;66.40;;;;;;20925933;28;20095;-59
2021/05/04 07:10:45;;;;;;;9.20;6.18;;;13.70;64.70;;;;;;20925215;28;20084;-60
2021/05/04 07:20:46;;;;;;;9.80;6.38;;;14.30;63.00;;;;;;20924671;28;20129;-59
2021/05/04 07:30:47;;;;;;;7.70;6.00;;;14.80;60.70;;;;;;20924004;28;20501;-61
2021/05/04 07:40:48;;;;;;;12.60;6.85;;;15.40;59.90;;;;;;20921576;28;20080;-62
2021/05/04 07:50:50;;;;;;;8.57;5.70;;;15.90;57.90;;;;;;20921394;28;20405;-59
2021/05/04 08:00:51;;;;;;;10.70;6.28;;;16.40;56.30;;;;;;20920786;28;20091;-60
2021/05/04 08:10:52;;;;;;;7.15;5.88;;;16.70;56.10;;;;;;20920079;28;20148;-62
2021/05/04 08:20:56;;;;;;;8.63;5.82;;;17.10;55.60;;;;;;20920321;28;20128;-61
2021/05/04 08:30:57;;;;;;;7.00;4.22;;;17.30;55.40;;;;;;20918633;28;20144;-61
2021/05/04 08:41:00;;;;;;;8.43;4.88;;;17.70;55.30;;;;;;20918535;28;20413;-60
2021/05/04 08:51:01;;;;;;;8.30;5.60;;;18.10;54.80;;;;;;20917470;28;20063;-60
2021/05/04 09:01:02;;;;;;;7.88;6.20;;;18.40;54.60;;;;;;20916485;28;20136;-61
2021/05/04 09:21:41;;;;;;;6.90;5.30;;;19.20;52.30;;;;;;20914929;28;20095;-60
2021/05/04 09:31:43;;;;;;;8.70;6.32;;;19.20;51.70;;;;;;20914535;28;20057;-60
2021/05/04 09:41:44;;;;;;;10.45;4.88;;;19.40;50.90;;;;;;20913635;28;20079;-58
2021/05/04 09:51:48;;;;;;;11.60;7.43;;;19.50;50.20;;;;;;20912669;28;20477;-60
2021/05/04 10:01:50;;;;;;;7.53;6.10;;;19.50;49.70;;;;;;20912885;28;20051;-62
2021/05/04 10:11:52;;;;;;;6.28;5.03;;;19.40;50.10;;;;;;20911776;28;20084;-62
2021/05/04 10:21:53;;;;;;;12.55;4.90;;;19.50;49.80;;;;;;20915400;28;20051;-54
2021/05/04 10:31:57;;;;;;;53.28;14.82;;;19.60;49.20;;;;;;20925730;28;20115;-57
2021/05/04 10:42:00;;;;;;;16.25;6.78;;;19.90;48.70;;;;;;20926752;28;20049;-55
2021/05/04 10:52:01;;;;;;;20.23;8.33;;;19.90;47.60;;;;;;20926740;28;20455;-54
2021/05/04 11:02:15;;;;;;;16.55;7.05;;;19.90;48.10;;;;;;20925963;28;20529;-55
2021/05/04 11:12:35;;;;;;;;;;;19.90;47.00;;;;;;20925051;28;20053;-56
2021/05/04 11:22:43;;;;;;;8.45;4.82;;;19.90;46.40;;;;;;20923679;28;19964;-57
2021/05/04 11:32:45;;;;;;;14.07;5.55;;;20.00;43.70;;;;;;20922506;28;20140;-56
2021/05/04 11:42:56;;;;;;;7.43;4.50;;;20.20;44.50;;;;;;20907855;28;20052;-54
2021/05/04 11:53:15;;;;;;;5.72;4.18;;;20.40;43.20;;;;;;20843492;28;20140;-57
2021/05/04 12:03:17;;;;;;;8.98;4.40;;;20.50;39.30;;;;;;20893138;28;20461;-53
2021/05/04 12:13:23;;;;;;;5.82;4.20;;;20.60;42.40;;;;;;20917183;28;20080;-60
2021/05/04 12:23:29;;;;;;;4.32;2.90;;;20.70;40.00;;;;;;20920191;28;20127;-57
2021/05/04 12:33:31;;;;;;;5.68;3.70;;;20.70;38.90;;;;;;20918470;28;20497;-66
2021/05/04 12:43:36;;;;;;;8.73;4.78;;;21.00;38.80;;;;;;20918222;28;20048;-59
2021/05/04 12:53:40;;;;;;;5.47;3.92;;;21.00;37.80;;;;;;20918609;28;20055;-63
2021/05/04 13:03:46;;;;;;;7.15;4.38;;;21.20;37.50;;;;;;20916971;28;20523;-59
2021/05/04 13:34:14;;;;;;;5.15;3.35;;;21.50;36.00;;;;;;20915782;28;20508;-62
2021/05/04 13:54:36;;;;;;;6.07;3.00;;;22.00;34.80;;;;;;20913274;28;20060;-61
2021/05/04 14:35:16;;;;;;;4.05;2.00;;;22.20;33.40;;;;;;20910923;28;20095;-61
2021/05/04 14:55:43;;;;;;;4.10;2.10;;;22.30;32.20;;;;;;20910425;28;20524;-57
2021/05/04 15:05:44;;;;;;;5.20;2.63;;;22.40;32.20;;;;;;20909702;28;20045;-58
2021/05/04 15:26:05;;;;;;;2.58;1.80;;;22.50;31.10;;;;;;20924942;28;20055;-61
2021/05/04 15:36:18;;;;;;;3.03;1.63;;;22.60;31.10;;;;;;20923960;28;20065;-60
2021/05/04 15:46:39;;;;;;;2.97;2.00;;;22.70;30.70;;;;;;20922737;28;20471;-57
2021/05/04 16:07:04;;;;;;;5.07;2.30;;;22.50;31.00;;;;;;20920647;28;20128;-57
2021/05/04 16:17:06;;;;;;;2.50;1.48;;;22.60;31.20;;;;;;20918880;28;20100;-60
2021/05/04 16:27:13;;;;;;;3.47;1.50;;;22.60;30.80;;;;;;20918091;28;20045;-66
2021/05/04 16:37:15;;;;;;;3.55;1.17;;;22.50;30.60;;;;;;20917575;28;20083;-64
2021/05/04 16:47:20;;;;;;;3.85;1.60;;;22.60;30.80;;;;;;20918416;28;20049;-66
2021/05/04 16:57:25;;;;;;;3.50;1.90;;;22.40;30.10;;;;;;20917036;28;20355;-61
2021/05/04 17:07:39;;;;;;;2.25;1.75;;;22.30;30.30;;;;;;20916059;28;20045;-57
2021/05/04 17:17:40;;;;;;;4.50;1.75;;;22.50;30.30;;;;;;20915940;28;20129;-60
2021/05/04 17:27:41;;;;;;;6.05;4.63;;;22.40;31.00;;;;;;20914200;28;20048;-58
2021/05/04 17:37:43;;;;;;;5.88;1.90;;;22.20;32.00;;;;;;20917717;28;20084;-60
2021/05/04 17:47:44;;;;;;;4.60;1.75;;;22.30;32.40;;;;;;20914135;28;20045;-56
2021/05/04 17:57:45;;;;;;;3.58;1.67;;;22.30;32.10;;;;;;20910255;28;20131;-53
2021/05/04 18:07:48;;;;;;;4.75;1.92;;;22.40;32.20;;;;;;20911686;28;20524;-56
2021/05/04 18:28:10;;;;;;;5.63;2.35;;;22.10;33.00;;;;;;20910986;28;20091;-59
2021/05/04 20:20:49;;;;;;;5.38;3.50;;;20.30;36.70;;;;;;20920044;28;20055;-61
2021/05/04 20:30:50;;;;;;;8.77;3.67;;;20.20;37.40;;;;;;20920068;28;20511;-66
2021/05/04 20:40:52;;;;;;;6.03;4.05;;;20.20;37.70;;;;;;20919049;28;20091;-62
2021/05/04 20:50:54;;;;;;;7.32;4.80;;;20.00;38.30;;;;;;20917786;28;20052;-62
2021/05/04 21:00:55;;;;;;;9.02;6.28;;;19.90;39.20;;;;;;20917038;28;20072;-61
2021/05/04 21:20:59;;;;;;;7.57;3.95;;;19.60;41.00;;;;;;20915729;28;20044;-63
2021/05/04 21:31:00;;;;;;;5.97;4.27;;;19.40;41.50;;;;;;20914029;28;20057;-60
2021/05/04 21:41:01;;;;;;;5.57;3.42;;;19.30;42.30;;;;;;20914400;28;20414;-67
2021/05/04 21:51:03;;;;;;;6.55;3.88;;;19.10;43.70;;;;;;20913223;28;20080;-66
2021/05/04 22:01:04;;;;;;;6.00;2.97;;;18.80;44.40;;;;;;20913004;28;20053;-68
2021/05/04 22:11:09;;;;;;;6.25;3.03;;;18.60;44.70;;;;;;20912682;28;20493;-65
2021/05/04 22:41:53;;;;;;;4.05;2.60;;;18.10;43.70;;;;;;20912047;28;20049;-59
2021/05/04 23:23:00;;;;;;;5.32;3.13;;;17.40;46.10;;;;;;20656101;28;20073;-66
2021/05/04 23:33:01;;;;;;;4.80;2.67;;;17.30;46.30;;;;;;20664914;28;20109;-61
2021/05/04 23:43:03;;;;;;;7.20;2.90;;;17.10;47.90;;;;;;20726191;28;20049;-65
2021/05/04 23:53:04;;;;;;;4.97;3.42;;;16.80;49.10;;;;;;20922450;28;20049;-65
